Time;durP1;ratioP1;P1;durP2;ratioP2;P2;SDS_P1;SDS_P2;PMS_P1;PMS_P2;Temp;Humidity;BMP_temperature;BMP_pressure;BME280_temperature;BME280_humidity;BME280_pressure;Samples;Min_cycle;Max_cycle;Signal;HPM_P1;HPM_P2
2022/02/19 00:03:28;;;;;;;6.00;2.42;;;;;;;11.26;59.87;97295.73;4360073;81;21573;-91
2022/02/19 00:09:30;;;;;;;6.17;1.95;;;;;;;11.38;59.50;97297.88;4311105;81;21054;-90
2022/02/19 00:15:31;;;;;;;7.85;2.50;;;;;;;11.48;57.90;97283.18;4382914;80;21537;-89
2022/02/19 00:21:33;;;;;;;6.15;2.17;;;;;;;11.47;57.49;97334.30;4378788;80;21010;-91
2022/02/19 00:27:34;;;;;;;5.58;2.27;;;;;;;11.60;57.42;97355.78;4381601;80;21549;-89
2022/02/19 00:33:37;;;;;;;7.05;1.90;;;;;;;11.63;58.16;97361.82;4380239;80;21060;-91
2022/02/19 00:39:38;;;;;;;6.00;2.17;;;;;;;11.60;57.89;97382.60;4378378;80;21086;-90
2022/02/19 00:45:40;;;;;;;15.35;2.58;;;;;;;11.81;58.00;97419.22;4386465;80;21608;-92
2022/02/19 00:51:41;;;;;;;4.80;1.52;;;;;;;11.96;59.65;97497.89;4380673;80;21547;-89
2022/02/19 00:57:42;;;;;;;11.93;3.65;;;;;;;11.80;61.25;97489.55;4383469;80;21055;-91
2022/02/19 01:03:44;;;;;;;3.72;1.60;;;;;;;11.49;61.73;97515.51;4380059;80;21024;-91
2022/02/19 01:09:45;;;;;;;5.12;1.30;;;;;;;11.26;61.00;97510.01;4383771;80;21652;-90
2022/02/19 01:15:47;;;;;;;6.95;2.02;;;;;;;11.20;60.38;97510.30;4392355;80;21018;-89
2022/02/19 01:21:48;;;;;;;3.55;2.15;;;;;;;11.08;61.85;97519.27;4388628;80;21038;-90
2022/02/19 01:27:50;;;;;;;6.72;2.62;;;;;;;10.98;63.09;97521.55;4388055;80;21576;-90
2022/02/19 01:33:53;;;;;;;3.25;2.05;;;;;;;10.62;65.29;97573.82;4383926;80;21584;-92
2022/02/19 01:39:54;;;;;;;3.40;1.57;;;;;;;10.28;64.81;97574.41;4390356;79;21675;-91
2022/02/19 01:45:56;;;;;;;2.65;1.40;;;;;;;10.00;66.12;97572.50;4384847;80;21065;-89
2022/02/19 01:51:57;;;;;;;3.83;1.10;;;;;;;9.65;66.94;97591.95;4385194;80;21038;-90
2022/02/19 01:58:02;;;;;;;2.52;1.15;;;;;;;9.36;67.52;97563.44;4368575;80;21049;-91
2022/02/19 02:04:10;;;;;;;2.17;0.80;;;;;;;9.25;67.49;97568.22;4386746;80;21073;-91
2022/02/19 02:10:11;;;;;;;3.25;0.90;;;;;;;9.22;65.46;97579.16;4390777;80;21046;-90
2022/02/19 02:16:13;;;;;;;1.32;0.80;;;;;;;9.16;64.74;97580.77;4386662;80;21517;-91
2022/02/19 02:22:17;;;;;;;2.25;1.12;;;;;;;9.10;63.75;97589.94;4382030;80;21040;-90
2022/02/19 02:28:19;;;;;;;5.45;1.30;;;;;;;9.14;61.15;97591.30;4359362;79;21011;-90
2022/02/19 02:34:20;;;;;;;2.30;1.00;;;;;;;9.20;59.25;97593.21;4382480;80;21062;-90
2022/02/19 02:40:22;;;;;;;3.90;0.80;;;;;;;9.13;59.86;97595.21;4389966;80;21048;-90
2022/02/19 02:46:23;;;;;;;4.78;1.17;;;;;;;9.11;59.13;97592.09;4387649;80;21014;-89
2022/02/19 02:52:27;;;;;;;1.95;0.93;;;;;;;9.14;58.31;97598.13;4383968;80;21062;-91
2022/02/19 02:58:28;;;;;;;1.87;1.00;;;;;;;9.15;59.03;97607.28;4384262;80;21626;-89
2022/02/19 03:04:31;;;;;;;4.53;1.35;;;;;;;9.10;59.27;97632.84;4389664;80;21010;-91
2022/02/19 03:10:33;;;;;;;3.30;1.30;;;;;;;9.14;57.28;97645.32;4387207;80;21084;-90
2022/02/19 03:16:35;;;;;;;2.62;0.98;;;;;;;9.19;56.67;97652.31;4390042;80;22343;-89
2022/02/19 03:22:36;;;;;;;3.08;0.90;;;;;;;9.14;55.02;97656.23;4386910;80;21010;-89
2022/02/19 03:28:38;;;;;;;3.47;0.60;;;;;;;9.09;55.09;97673.60;4388943;80;21335;-89
2022/02/19 03:34:41;;;;;;;2.55;0.93;;;;;;;9.18;52.23;97676.09;4375876;80;21049;-89
2022/02/19 03:40:42;;;;;;;6.17;1.35;;;;;;;9.20;51.28;97705.73;4388929;80;21081;-90
2022/02/19 03:46:43;;;;;;;5.08;0.90;;;;;;;9.24;50.72;97705.13;4387264;80;21112;-89
2022/02/19 03:52:51;;;;;;;3.05;0.78;;;;;;;9.08;51.25;97723.92;4387783;79;20975;-90
2022/02/19 03:58:54;;;;;;;4.65;0.80;;;;;;;8.94;50.07;97731.55;4383332;80;21112;-90
2022/02/19 04:04:55;;;;;;;2.98;1.00;;;;;;;8.91;50.39;97745.98;4383139;80;21473;-89
2022/02/19 04:10:58;;;;;;;4.47;1.32;;;;;;;8.84;50.15;97751.47;4361299;80;21040;-90
2022/02/19 04:17:00;;;;;;;4.28;1.05;;;;;;;8.78;49.84;97748.17;4385697;80;21549;-90
2022/02/19 04:23:02;;;;;;;1.62;0.72;;;;;;;8.69;50.00;97743.70;4383332;80;21056;-92
2022/02/19 04:29:04;;;;;;;2.45;1.00;;;;;;;8.67;49.93;97755.02;4385186;80;21125;-89
2022/02/19 04:35:07;;;;;;;5.75;0.93;;;;;;;8.69;49.34;97758.71;4356961;80;21090;-90
2022/02/19 04:41:11;;;;;;;5.05;1.65;;;;;;;8.59;49.46;97769.83;4386333;79;21501;-90
2022/02/19 04:47:13;;;;;;;2.20;0.85;;;;;;;8.54;49.07;97771.58;4386435;80;21085;-90
2022/02/19 04:53:15;;;;;;;2.65;0.60;;;;;;;8.56;48.89;97764.36;4278750;80;34984;-91
2022/02/19 04:59:18;;;;;;;2.35;0.60;;;;;;;8.60;47.45;97739.22;4261316;83;21556;-91
2022/02/19 05:05:20;;;;;;;2.77;0.60;;;;;;;8.49;47.43;97791.05;4264635;82;21434;-90
2022/02/19 05:11:23;;;;;;;1.40;0.30;;;;;;;8.51;46.01;97811.91;4261485;83;21053;-90
2022/02/19 05:17:26;;;;;;;1.65;0.50;;;;;;;8.41;46.57;97825.55;4262368;82;21062;-90
2022/02/19 05:23:29;;;;;;;4.35;0.70;;;;;;;8.34;46.64;97829.61;4262936;83;21045;-90
2022/02/19 05:29:31;;;;;;;2.17;0.70;;;;;;;8.22;46.15;97843.02;4262636;82;21078;-89
2022/02/19 05:35:33;;;;;;;4.87;1.15;;;;;;;8.15;46.30;97852.53;4262475;82;21025;-90
2022/02/19 05:41:36;;;;;;;8.88;1.72;;;;;;;7.93;46.45;97847.61;4263022;82;21549;-89
2022/02/19 05:47:39;;;;;;;5.00;0.98;;;;;;;7.86;46.70;97853.63;4260882;82;21586;-90
2022/02/19 05:53:42;;;;;;;4.22;0.88;;;;;;;7.72;46.21;97857.66;4257544;83;21231;-91
2022/02/19 05:59:43;;;;;;;3.80;1.45;;;;;;;7.69;47.08;97856.46;4254341;82;21057;-90
2022/02/19 06:05:46;;;;;;;6.78;1.32;;;;;;;7.57;47.52;97869.06;4252961;82;21066;-91
2022/02/19 06:11:48;;;;;;;3.95;1.20;;;;;;;7.64;47.26;97875.89;4262594;83;21054;-91
2022/02/19 06:17:51;;;;;;;4.40;1.12;;;;;;;7.62;47.95;97885.61;4260773;82;21106;-90
2022/02/19 06:23:53;;;;;;;3.45;1.00;;;;;;;7.73;47.52;97887.81;4259397;82;21094;-90
2022/02/19 06:29:54;;;;;;;2.65;1.00;;;;;;;7.85;47.03;97901.88;4262261;82;22085;-90
2022/02/19 06:35:58;;;;;;;9.90;1.22;;;;;;;7.93;46.67;97899.95;4262129;83;21067;-89
2022/02/19 06:42:01;;;;;;;5.25;1.45;;;;;;;7.86;46.68;97907.52;4263127;83;21081;-91
2022/02/19 06:48:05;;;;;;;5.83;1.50;;;;;;;7.81;46.55;97906.52;4255496;83;21362;-90
2022/02/19 06:54:07;;;;;;;4.65;1.00;;;;;;;7.72;47.16;97918.95;4262100;82;21101;-91
2022/02/19 07:00:11;;;;;;;6.20;1.35;;;;;;;7.64;46.92;97935.05;4262929;82;21035;-91
2022/02/19 07:06:15;;;;;;;8.03;1.12;;;;;;;7.51;47.49;97945.48;4243123;83;21570;-91
2022/02/19 07:12:16;;;;;;;6.00;1.15;;;;;;;7.49;47.59;97944.28;4258999;83;21089;-90
2022/02/19 07:18:18;;;;;;;6.40;1.45;;;;;;;7.63;46.92;97950.59;4253441;82;21556;-90
2022/02/19 07:24:21;;;;;;;4.35;1.47;;;;;;;7.77;46.76;97957.48;4260189;83;21564;-91
2022/02/19 07:30:23;;;;;;;6.75;1.77;;;;;;;7.79;46.64;97981.06;4262456;82;21108;-90
2022/02/19 07:36:24;;;;;;;8.18;1.95;;;;;;;7.82;45.71;97990.40;4262272;82;21064;-90
2022/02/19 07:42:26;;;;;;;7.15;1.47;;;;;;;8.03;45.62;97996.55;4258865;82;21128;-91
2022/02/19 07:48:46;;;;;;;9.43;1.80;;;;;;;8.61;44.49;98002.67;4261636;83;21128;-90
2022/02/19 08:01:32;;;;;;;5.72;1.42;;;;;;;9.28;43.03;98026.77;4263245;83;21057;-90
2022/02/19 08:07:34;;;;;;;5.78;1.42;;;;;;;9.44;43.01;98040.23;4266981;83;21041;-90
2022/02/19 08:13:35;;;;;;;10.10;2.45;;;;;;;9.57;43.09;98054.28;4256875;83;21814;-92
2022/02/19 08:19:37;;;;;;;10.23;1.98;;;;;;;9.66;42.90;98080.66;4260948;82;21028;-89
2022/02/19 08:25:39;;;;;;;7.10;1.90;;;;;;;9.82;42.34;98076.16;4260959;83;21073;-90
2022/02/19 08:31:40;;;;;;;8.23;2.00;;;;;;;10.13;42.50;98080.84;4261760;83;21053;-91
2022/02/19 08:37:42;;;;;;;8.15;2.00;;;;;;;10.58;42.11;98088.93;4260116;83;21624;-90
2022/02/19 08:43:43;;;;;;;6.28;1.32;;;;;;;10.91;41.06;98087.62;4261245;83;21121;-90
2022/02/19 08:49:44;;;;;;;8.25;1.52;;;;;;;11.42;41.33;98087.70;4258567;82;21803;-92
2022/02/19 08:55:46;;;;;;;7.80;2.00;;;;;;;11.66;38.38;98101.87;4258973;82;21575;-89
2022/02/19 09:01:48;;;;;;;8.65;1.42;;;;;;;11.76;38.10;98106.47;4259745;83;21053;-92
2022/02/19 09:07:49;;;;;;;9.00;2.02;;;;;;;11.69;37.66;98128.47;4259662;83;21988;-93
2022/02/19 09:13:54;;;;;;;13.50;2.02;;;;;;;11.69;35.64;98145.50;4263548;83;21080;-91
2022/02/19 09:19:54;;;;;;;7.45;1.35;;;;;;;11.78;36.08;98146.62;4262429;80;21472;-93
2022/02/19 09:25:56;;;;;;;7.05;1.85;;;;;;;11.86;35.32;98167.33;4264443;82;21644;-91
2022/02/19 09:31:57;;;;;;;14.55;2.02;;;;;;;11.51;35.77;98159.29;4260978;82;21362;-91
2022/02/19 09:37:58;;;;;;;10.13;1.92;;;;;;;11.20;35.21;98184.13;4258691;82;21108;-89
2022/02/19 09:44:04;;;;;;;8.48;1.32;;;;;;;11.36;35.70;98217.31;4262284;82;21113;-92
2022/02/19 09:50:07;;;;;;;5.05;1.27;;;;;;;11.85;35.55;98218.45;4262569;82;22273;-90
2022/02/19 09:56:09;;;;;;;3.67;0.90;;;;;;;12.68;35.99;98238.77;4259723;82;21111;-90
2022/02/19 10:02:11;;;;;;;5.28;0.80;;;;;;;12.95;33.13;98239.08;4258736;82;21105;-91
2022/02/19 10:08:12;;;;;;;5.58;1.27;;;;;;;13.11;33.61;98254.45;4260746;83;21113;-93
2022/02/19 10:14:31;;;;;;;6.35;1.67;;;;;;;13.42;33.70;98259.42;4252987;82;21028;-92
2022/02/19 10:20:33;;;;;;;5.55;1.40;;;;;;;13.11;33.38;98279.18;4257480;82;21089;-93
2022/02/19 10:26:35;;;;;;;4.67;1.52;;;;;;;13.23;33.91;98283.39;4261496;82;21039;-94
2022/02/19 10:32:53;;;;;;;3.60;1.02;;;;;;;13.54;33.85;98295.41;4261479;82;21093;-93
2022/02/19 10:38:59;;;;;;;7.28;1.27;;;;;;;13.82;32.36;98281.88;4239710;82;21072;-90
2022/02/19 10:45:09;;;;;;;6.42;1.15;;;;;;;13.39;31.75;98313.23;4258596;83;22057;-91
2022/02/19 10:51:18;;;;;;;3.72;1.30;;;;;;;12.46;32.08;98317.22;4259049;83;21565;-91
2022/02/19 10:57:22;;;;;;;3.87;1.22;;;;;;;12.67;31.22;98318.99;4263023;82;21795;-90
2022/02/19 11:03:25;;;;;;;7.15;1.85;;;;;;;12.84;31.96;98324.16;4263658;82;21045;-91
2022/02/19 11:09:27;;;;;;;6.00;1.62;;;;;;;12.57;30.46;98335.73;4262676;83;22464;-92
2022/02/19 11:15:28;;;;;;;4.42;1.20;;;;;;;12.48;31.51;98342.89;4262049;82;21093;-91
2022/02/19 11:21:32;;;;;;;3.85;1.07;;;;;;;12.77;32.25;98356.59;4262705;83;21145;-91
2022/02/19 11:27:59;;;;;;;7.95;1.27;;;;;;;13.06;31.93;98361.29;4261844;83;21041;-91
2022/02/19 11:34:02;;;;;;;2.05;0.80;;;;;;;13.02;31.61;98373.67;4242307;83;21069;-90
2022/02/19 11:40:15;;;;;;;3.60;0.88;;;;;;;12.64;31.72;98386.49;4262168;82;21074;-90
2022/02/19 11:46:29;;;;;;;4.60;1.05;;;;;;;12.31;31.57;98378.06;4262976;83;21069;-91
2022/02/19 11:52:30;;;;;;;5.50;1.02;;;;;;;12.36;31.74;98400.97;4259291;82;21061;-89
2022/02/19 11:58:32;;;;;;;4.53;1.00;;;;;;;12.08;31.44;98414.83;4262014;83;21053;-90
2022/02/19 12:04:34;;;;;;;3.90;1.00;;;;;;;11.34;31.61;98405.41;4244042;82;21041;-90
2022/02/19 12:10:58;;;;;;;4.80;0.95;;;;;;;11.23;32.45;98407.37;4263289;83;21109;-89
2022/02/19 12:17:11;;;;;;;5.42;1.55;;;;;;;11.22;33.02;98411.30;4261552;82;21082;-90
2022/02/19 12:23:12;;;;;;;6.17;2.02;;;;;;;11.23;32.89;98421.08;4260005;82;21120;-90
2022/02/19 12:29:29;;;;;;;3.47;0.93;;;;;;;11.30;33.14;98436.73;4262733;82;21069;-92
2022/02/19 12:35:44;;;;;;;3.85;1.12;;;;;;;11.13;33.42;98430.67;4263396;82;21022;-91
2022/02/19 12:41:49;;;;;;;;;;;;;;;10.93;33.20;98417.36;4240249;82;21029;-90
2022/02/19 12:47:50;;;;;;;4.45;1.40;;;;;;;10.66;33.45;98439.45;4262829;82;20547;-90
2022/02/19 12:53:52;;;;;;;3.20;0.98;;;;;;;10.40;34.05;98445.81;4256328;82;21041;-92
2022/02/19 12:59:56;;;;;;;3.85;1.40;;;;;;;10.37;33.81;98456.16;4262491;83;20990;-90
2022/02/19 13:05:58;;;;;;;3.67;1.27;;;;;;;10.28;34.24;98456.54;4260885;83;21005;-89
2022/02/19 13:12:05;;;;;;;5.15;1.50;;;;;;;10.06;34.79;98470.47;4263403;82;21098;-91
2022/02/19 13:18:06;;;;;;;;;;;;;;;9.92;35.03;98482.13;4265572;82;21127;-90
2022/02/19 13:24:17;;;;;;;5.25;1.15;;;;;;;9.71;35.05;98473.79;4262362;82;20165;-91
2022/02/19 13:30:19;;;;;;;4.05;1.32;;;;;;;9.50;35.13;98499.05;4262383;82;21154;-92
2022/02/19 13:36:21;;;;;;;3.83;1.60;;;;;;;9.45;35.61;98504.06;4260007;83;21065;-91
2022/02/19 13:42:47;;;;;;;5.97;1.37;;;;;;;9.35;36.37;98506.92;4262954;82;21079;-91
2022/02/19 13:48:51;;;;;;;3.02;1.10;;;;;;;9.25;36.55;98514.46;4263744;82;21050;-90
2022/02/19 13:55:09;;;;;;;4.55;1.37;;;;;;;9.10;36.56;98534.59;4262413;83;21010;-92
2022/02/19 14:01:21;;;;;;;8.20;2.20;;;;;;;8.99;37.17;98545.98;4261052;82;21025;-90
2022/02/19 14:07:23;;;;;;;5.28;1.52;;;;;;;8.92;37.59;98574.59;4243959;83;21101;-91
2022/02/19 14:13:27;;;;;;;6.97;1.90;;;;;;;8.77;37.79;98574.81;4262755;83;21647;-91
2022/02/19 14:19:30;;;;;;;7.03;2.62;;;;;;;8.71;38.11;98573.55;4260641;82;21013;-91
2022/02/19 14:25:35;;;;;;;12.10;2.83;;;;;;;8.61;38.29;98594.12;4262410;82;21108;-91
2022/02/19 14:31:40;;;;;;;8.90;3.40;;;;;;;8.56;38.63;98591.71;4261305;82;21069;-91
2022/02/19 14:37:41;;;;;;;8.40;3.25;;;;;;;8.56;39.01;98599.89;4265199;82;21104;-91
2022/02/19 14:43:43;;;;;;;7.37;2.75;;;;;;;8.43;39.65;98610.02;4260553;82;21118;-91
2022/02/19 14:49:47;;;;;;;7.53;2.65;;;;;;;8.39;39.67;98611.94;4262213;83;21600;-91
2022/02/19 14:55:53;;;;;;;6.65;3.02;;;;;;;8.30;39.65;98616.28;4260691;82;21049;-91
2022/02/19 15:01:54;;;;;;;7.80;2.77;;;;;;;8.29;40.16;98615.28;4261074;82;21088;-91
2022/02/19 15:07:56;;;;;;;6.85;2.45;;;;;;;8.18;40.06;98613.75;4266370;83;21061;-91
2022/02/19 15:13:58;;;;;;;7.67;2.45;;;;;;;8.05;40.13;98618.43;4257731;82;21628;-89
2022/02/19 15:19:59;;;;;;;8.98;2.95;;;;;;;8.06;40.39;98622.72;4266146;82;21024;-90
2022/02/19 15:26:01;;;;;;;8.48;3.40;;;;;;;8.16;40.33;98639.23;4264786;83;21092;-91
2022/02/19 15:32:03;;;;;;;7.70;2.67;;;;;;;8.09;40.38;98634.25;4263539;82;22494;-91
2022/02/19 15:38:04;;;;;;;10.78;3.10;;;;;;;7.76;40.88;98641.72;4262810;82;21013;-91
2022/02/19 15:44:06;;;;;;;9.43;2.85;;;;;;;7.65;40.83;98657.10;4259878;83;21057;-91
2022/02/19 15:50:09;;;;;;;8.28;2.87;;;;;;;7.55;40.76;98666.66;4260411;82;21059;-90
2022/02/19 15:56:11;;;;;;;6.80;2.75;;;;;;;7.46;40.87;98673.49;4261125;82;21069;-91
2022/02/19 16:02:12;;;;;;;6.87;2.95;;;;;;;7.36;41.06;98677.59;4260124;82;21050;-90
2022/02/19 16:08:13;;;;;;;10.32;3.90;;;;;;;7.30;41.03;98681.77;4260446;83;21018;-90
2022/02/19 16:14:15;;;;;;;10.10;2.92;;;;;;;7.16;41.34;98692.38;4264112;82;21046;-90
2022/02/19 16:20:17;;;;;;;5.20;2.20;;;;;;;6.93;41.28;98714.66;4263419;82;21213;-91
2022/02/19 16:26:19;;;;;;;7.72;3.20;;;;;;;6.72;41.07;98720.23;4264175;82;21025;-92
2022/02/19 16:32:21;;;;;;;7.65;2.92;;;;;;;6.51;40.95;98729.27;4263788;83;21067;-91
2022/02/19 16:38:22;;;;;;;7.40;2.30;;;;;;;6.30;41.04;98738.52;4263920;82;21069;-90
2022/02/19 16:44:23;;;;;;;11.40;3.60;;;;;;;6.15;41.19;98759.69;4263574;83;21042;-89
2022/02/19 16:50:25;;;;;;;8.98;3.58;;;;;;;6.02;41.46;98772.36;4262819;82;21068;-90
2022/02/19 16:56:28;;;;;;;10.85;3.25;;;;;;;5.83;41.97;98777.69;4262709;82;21089;-92
2022/02/19 17:02:30;;;;;;;9.03;3.17;;;;;;;5.77;41.99;98797.50;4265253;82;20998;-91
2022/02/19 17:08:34;;;;;;;9.23;3.75;;;;;;;5.62;42.34;98812.41;4263932;82;21106;-89
2022/02/19 17:14:35;;;;;;;8.58;2.80;;;;;;;5.42;42.82;98831.05;4259299;82;21128;-90
2022/02/19 17:20:36;;;;;;;16.30;4.50;;;;;;;5.34;42.90;98838.76;4257440;82;21587;-90
2022/02/19 17:26:37;;;;;;;10.75;3.72;;;;;;;5.25;43.78;98840.24;4260585;82;21591;-91
2022/02/19 17:32:41;;;;;;;12.80;4.90;;;;;;;5.15;43.47;98842.09;4259123;82;21061;-90
2022/02/19 17:38:42;;;;;;;12.45;4.85;;;;;;;5.05;43.69;98844.47;4256642;82;21076;-91
2022/02/19 17:44:44;;;;;;;12.28;4.40;;;;;;;4.96;43.74;98860.09;4259570;82;21102;-90
2022/02/19 17:50:45;;;;;;;12.33;4.40;;;;;;;4.91;43.93;98874.67;4255238;82;21038;-90
2022/02/19 17:56:48;;;;;;;11.93;4.75;;;;;;;4.81;44.09;98880.54;4140800;80;10000287;-89
2022/02/19 18:02:51;;;;;;;13.05;4.85;;;;;;;4.75;44.25;98888.68;4243370;81;21098;-90
2022/02/19 18:08:52;;;;;;;11.80;4.22;;;;;;;4.67;44.37;98888.23;4259889;82;21109;-91
2022/02/19 18:14:54;;;;;;;12.68;4.30;;;;;;;4.59;44.52;98898.05;4260796;82;21125;-90
2022/02/19 18:20:55;;;;;;;14.20;4.90;;;;;;;4.47;44.72;98891.83;4261382;82;21593;-90
2022/02/19 18:26:57;;;;;;;15.78;6.15;;;;;;;4.29;44.93;98893.94;4263866;82;21110;-89
2022/02/19 18:32:59;;;;;;;16.62;6.60;;;;;;;4.22;45.24;98905.91;4260438;82;21122;-91
2022/02/19 18:39:01;;;;;;;18.48;6.35;;;;;;;4.12;45.40;98917.16;4259730;82;21085;-90
2022/02/19 18:45:04;;;;;;;14.95;5.30;;;;;;;4.06;45.84;98917.14;4260725;82;21657;-91
2022/02/19 18:51:07;;;;;;;13.25;5.37;;;;;;;4.02;46.19;98924.92;4259600;82;21092;-89
2022/02/19 18:57:08;;;;;;;16.85;5.60;;;;;;;3.95;46.43;98917.88;4260270;82;21624;-90
2022/02/19 19:03:10;;;;;;;16.10;5.47;;;;;;;3.91;46.75;98914.27;4262118;82;21120;-90
2022/02/19 19:09:11;;;;;;;17.45;6.55;;;;;;;3.85;46.90;98920.47;4262057;82;21641;-90
2022/02/19 19:15:13;;;;;;;27.20;7.37;;;;;;;3.78;47.06;98930.22;4258797;83;21159;-91
2022/02/19 19:21:17;;;;;;;19.35;7.12;;;;;;;3.69;47.35;98929.51;4263915;82;21610;-89
2022/02/19 19:27:18;;;;;;;20.90;7.42;;;;;;;3.65;47.40;98932.66;4246570;82;21120;-90
2022/02/19 19:33:19;;;;;;;24.12;8.15;;;;;;;3.56;47.72;98935.42;4258300;82;21073;-90
2022/02/19 19:39:23;;;;;;;24.47;8.65;;;;;;;3.50;47.84;98950.83;4260066;82;21026;-91
2022/02/19 19:45:24;;;;;;;27.10;8.80;;;;;;;3.50;48.44;98962.45;4262351;82;21111;-90
2022/02/19 19:51:25;;;;;;;26.20;8.40;;;;;;;3.42;48.33;98967.91;4260982;82;21053;-90
2022/02/19 19:57:27;;;;;;;24.37;8.85;;;;;;;3.37;48.95;98977.02;4259679;82;21078;-91
2022/02/19 20:03:29;;;;;;;23.50;7.92;;;;;;;3.32;48.93;98983.19;4261901;82;21062;-91
2022/02/19 20:09:33;;;;;;;21.07;8.20;;;;;;;3.29;48.94;98987.91;4260786;82;21117;-90
2022/02/19 20:15:39;;;;;;;27.25;9.13;;;;;;;3.21;49.27;98999.02;4260647;82;21109;-90
2022/02/19 20:21:41;;;;;;;31.45;10.08;;;;;;;3.14;49.53;99009.54;4261072;82;21106;-89
2022/02/19 20:27:42;;;;;;;33.65;11.90;;;;;;;3.07;49.87;99019.51;4264735;82;21704;-91
2022/02/19 20:33:44;;;;;;;37.55;12.90;;;;;;;2.98;50.22;99006.59;4263159;82;21126;-89
2022/02/19 20:39:45;;;;;;;29.45;11.80;;;;;;;2.86;50.35;98997.58;4259498;83;21088;-90
2022/02/19 20:45:46;;;;;;;42.50;14.85;;;;;;;2.71;51.08;98999.47;4260080;82;21581;-90
2022/02/19 20:51:48;;;;;;;42.23;15.50;;;;;;;2.52;51.14;99011.97;4260916;82;21141;-89
2022/02/19 20:57:49;;;;;;;40.05;14.70;;;;;;;2.34;51.66;99013.69;4260784;83;21683;-89
2022/02/19 21:03:51;;;;;;;50.58;15.43;;;;;;;2.01;51.14;98999.09;4260032;83;21074;-89
2022/02/19 21:09:52;;;;;;;46.25;16.35;;;;;;;1.90;51.70;99002.69;4260880;83;21100;-89
2022/02/19 21:15:53;;;;;;;46.42;15.65;;;;;;;1.79;51.41;99010.05;4261991;83;22450;-89
2022/02/19 21:21:55;;;;;;;54.93;22.20;;;;;;;1.59;51.82;99017.68;4259793;82;21094;-90
2022/02/19 21:27:56;;;;;;;52.35;21.75;;;;;;;1.31;51.84;99006.92;4260846;82;21967;-89
2022/02/19 21:33:58;;;;;;;52.05;19.30;;;;;;;1.02;52.40;99016.64;4260620;82;21102;-91
2022/02/19 21:40:05;;;;;;;60.83;21.75;;;;;;;0.80;52.60;99026.94;4260693;82;21520;-89
2022/02/19 21:46:03;;;;;;;84.30;29.00;;;;;;;0.62;53.03;99029.32;4260547;82;21377;-89
2022/02/19 21:52:05;;;;;;;86.08;29.63;;;;;;;0.60;53.15;99029.37;4262623;83;21503;-89
2022/02/19 21:58:07;;;;;;;113.77;43.50;;;;;;;0.50;53.68;99020.22;4262503;82;21066;-89
2022/02/19 22:04:08;;;;;;;86.65;32.67;;;;;;;0.32;54.05;99026.59;4261972;82;22310;-90
2022/02/19 22:10:10;;;;;;;69.62;27.90;;;;;;;-0.08;54.31;98999.55;4262089;82;21707;-88
2022/02/19 22:16:11;;;;;;;74.55;25.10;;;;;;;-0.40;54.81;99017.80;4260344;83;21584;-88
2022/02/19 22:22:13;;;;;;;69.20;27.48;;;;;;;-0.40;54.81;99017.80;4257561;82;21129;-89
2022/02/19 22:28:14;;;;;;;83.12;31.07;;;;;;;-0.48;56.21;99030.06;4261653;82;20981;-89
2022/02/19 22:34:19;;;;;;;80.35;31.20;;;;;;;-0.48;56.21;99030.06;4258175;82;21064;-89
2022/02/19 22:40:20;;;;;;;62.62;24.00;;;;;;;-0.52;56.26;99027.72;4266573;82;20994;-89
2022/02/19 22:46:21;;;;;;;71.47;26.97;;;;;;;-0.66;56.23;99022.13;4264054;82;21096;-88
2022/02/19 22:52:23;;;;;;;80.75;28.83;;;;;;;-0.76;57.30;99025.02;4265127;82;21077;-89
2022/02/19 22:58:25;;;;;;;70.90;26.48;;;;;;;-0.85;57.19;99018.77;4263053;83;21548;-90
2022/02/19 23:10:46;;;;;;;60.73;22.40;;;;;;;-0.98;57.58;99005.59;4262637;83;21050;-89
2022/02/19 23:16:49;;;;;;;59.37;23.87;;;;;;;-1.19;58.37;99005.72;4261365;82;21105;-88
2022/02/19 23:22:50;;;;;;;61.17;20.47;;;;;;;-1.26;58.48;99003.19;4261606;82;21065;-89
2022/02/19 23:28:53;;;;;;;52.37;20.87;;;;;;;-1.43;58.74;98994.37;4261905;82;21379;-89
2022/02/19 23:34:55;;;;;;;56.93;20.27;;;;;;;-1.51;58.91;98991.57;4262422;83;21621;-89
2022/02/19 23:40:57;;;;;;;54.97;19.90;;;;;;;-1.58;59.82;98993.30;4263165;82;21077;-90
2022/02/19 23:46:59;;;;;;;57.33;22.53;;;;;;;-1.43;61.08;98993.58;4261061;82;21509;-91
2022/02/19 23:53:00;;;;;;;62.83;23.63;;;;;;;-1.46;60.71;98992.29;4262437;82;21069;-90
2022/02/19 23:59:02;;;;;;;67.47;25.80;;;;;;;-1.60;60.19;98985.53;4263778;82;21033;-88
